UAL683 KIAD-KTPA
Flight info
| Callsign | UAL683 |
|---|---|
| Flight time | 2h 12m |
| Altitude | 34000 |
| Route | CLTCH3 FLASK GOWBE BURGG BAAMF DADES2 |
| Aircraft | B739/M-SDE2E3FGHIRWXY/LB1 |
Departure
| Time | 2026-05-06 22:07 |
|---|---|
| Airport | Washington Dulles International Airport (KIAD) |
Arrival
| Time | 2026-05-07 00:19 |
|---|---|
| Airport | Tampa International Airport (KTPA) |
| Time | Latitude | Longitude | Altitude | Speed | Heading |
|---|---|---|---|---|---|
| 2026-05-06 21:31 | 38.94588 | -77.44378 | 319 ft | 0 kts | 187° |
| 2026-05-06 21:57 | 38.94589 | -77.44378 | 319 ft | 0 kts | 187° |
| 2026-05-06 21:57 | 38.94603 | -77.44376 | 319 ft | 2 kts | 187° |
| 2026-05-06 21:57 | 38.94617 | -77.44374 | 319 ft | 2 kts | 187° |
| 2026-05-06 21:58 | 38.94627 | -77.44373 | 319 ft | 2 kts | 183° |
| 2026-05-06 21:58 | 38.94642 | -77.44377 | 319 ft | 2 kts | 148° |
| 2026-05-06 21:58 | 38.94653 | -77.44390 | 319 ft | 2 kts | 120° |
| 2026-05-06 21:58 | 38.94657 | -77.44408 | 319 ft | 1 kts | 95° |
| 2026-05-06 21:59 | 38.94657 | -77.44415 | 319 ft | 1 kts | 88° |
| 2026-05-06 21:59 | 38.94657 | -77.44418 | 319 ft | 0 kts | 89° |
| 2026-05-06 22:01 | 38.94658 | -77.44389 | 319 ft | 10 kts | 89° |
| 2026-05-06 22:01 | 38.94659 | -77.44291 | 319 ft | 10 kts | 90° |
| 2026-05-06 22:01 | 38.94658 | -77.44203 | 319 ft | 9 kts | 91° |
| 2026-05-06 22:01 | 38.94658 | -77.44133 | 319 ft | 4 kts | 90° |
| 2026-05-06 22:02 | 38.94658 | -77.44126 | 319 ft | 0 kts | 90° |
| 2026-05-06 22:02 | 38.94658 | -77.44125 | 319 ft | 0 kts | 90° |
| 2026-05-06 22:02 | 38.94658 | -77.44092 | 319 ft | 9 kts | 91° |
| 2026-05-06 22:02 | 38.94672 | -77.44009 | 319 ft | 12 kts | 57° |
| 2026-05-06 22:03 | 38.94750 | -77.43973 | 319 ft | 13 kts | 3° |
| 2026-05-06 22:03 | 38.94876 | -77.43971 | 319 ft | 19 kts | 1° |
| 2026-05-06 22:03 | 38.94970 | -77.43969 | 319 ft | 10 kts | 1° |
| 2026-05-06 22:03 | 38.95063 | -77.43967 | 319 ft | 17 kts | 0° |
| 2026-05-06 22:04 | 38.95184 | -77.43967 | 319 ft | 16 kts | 0° |
| 2026-05-06 22:04 | 38.95295 | -77.43964 | 319 ft | 15 kts | 1° |
| 2026-05-06 22:04 | 38.95397 | -77.43961 | 319 ft | 13 kts | 1° |
| 2026-05-06 22:04 | 38.95472 | -77.43928 | 319 ft | 10 kts | 55° |
| 2026-05-06 22:05 | 38.95486 | -77.43842 | 319 ft | 9 kts | 88° |
| 2026-05-06 22:05 | 38.95487 | -77.43774 | 319 ft | 0 kts | 90° |
| 2026-05-06 22:06 | 38.95487 | -77.43740 | 319 ft | 8 kts | 91° |
| 2026-05-06 22:06 | 38.95474 | -77.43655 | 319 ft | 10 kts | 117° |
| 2026-05-06 22:06 | 38.95418 | -77.43605 | 319 ft | 9 kts | 171° |
| 2026-05-06 22:06 | 38.95340 | -77.43600 | 319 ft | 23 kts | 180° |
| 2026-05-06 22:07 | 38.94947 | -77.43604 | 319 ft | 88 kts | 180° |
| 2026-05-06 22:07 | 38.94060 | -77.43619 | 319 ft | 163 kts | 181° |
| 2026-05-06 22:07 | 38.92829 | -77.43621 | 946 ft | 184 kts | 182° |
| 2026-05-06 22:07 | 38.91549 | -77.43552 | 1786 ft | 198 kts | 181° |
| 2026-05-06 22:08 | 38.90140 | -77.43404 | 2491 ft | 209 kts | 180° |
| 2026-05-06 22:08 | 38.88647 | -77.43391 | 3057 ft | 218 kts | 198° |
| 2026-05-06 22:08 | 38.87381 | -77.44406 | 3574 ft | 225 kts | 236° |
| 2026-05-06 22:08 | 38.86708 | -77.46224 | 4375 ft | 228 kts | 251° |
| 2026-05-06 22:09 | 38.86149 | -77.48154 | 5019 ft | 241 kts | 248° |
| 2026-05-06 22:09 | 38.85297 | -77.50046 | 5831 ft | 249 kts | 236° |
| 2026-05-06 22:09 | 38.84108 | -77.51681 | 6729 ft | 254 kts | 226° |
| 2026-05-06 22:09 | 38.82726 | -77.53067 | 7677 ft | 255 kts | 221° |
| 2026-05-06 22:10 | 38.81275 | -77.54353 | 8502 ft | 258 kts | 220° |
| 2026-05-06 22:10 | 38.79788 | -77.55638 | 9317 ft | 261 kts | 220° |
| 2026-05-06 22:10 | 38.78280 | -77.56953 | 10170 ft | 262 kts | 220° |
| 2026-05-06 22:10 | 38.76777 | -77.58277 | 10827 ft | 269 kts | 221° |
| 2026-05-06 22:11 | 38.75222 | -77.59650 | 11542 ft | 274 kts | 221° |
| 2026-05-06 22:11 | 38.73642 | -77.61044 | 12277 ft | 277 kts | 221° |
| 2026-05-06 22:11 | 38.72049 | -77.62446 | 13025 ft | 279 kts | 222° |
| 2026-05-06 22:11 | 38.70444 | -77.63860 | 13703 ft | 283 kts | 222° |
| 2026-05-06 22:12 | 38.68826 | -77.65282 | 14422 ft | 286 kts | 222° |
| 2026-05-06 22:12 | 38.67191 | -77.66718 | 15156 ft | 287 kts | 222° |
| 2026-05-06 22:12 | 38.65524 | -77.68183 | 15803 ft | 291 kts | 222° |
| 2026-05-06 22:12 | 38.63856 | -77.69649 | 16427 ft | 295 kts | 223° |
| 2026-05-06 22:13 | 38.62165 | -77.71137 | 17086 ft | 298 kts | 223° |
| 2026-05-06 22:13 | 38.60452 | -77.72643 | 17770 ft | 300 kts | 223° |
| 2026-05-06 22:13 | 38.58749 | -77.74129 | 18498 ft | 298 kts | 223° |
| 2026-05-06 22:13 | 38.57044 | -77.75618 | 19123 ft | 300 kts | 224° |
| 2026-05-06 22:14 | 38.55298 | -77.77145 | 19735 ft | 302 kts | 224° |
| 2026-05-06 22:14 | 38.53586 | -77.78675 | 20350 ft | 301 kts | 226° |
| 2026-05-06 22:14 | 38.51996 | -77.80370 | 20946 ft | 295 kts | 232° |
| 2026-05-06 22:14 | 38.50568 | -77.82244 | 21483 ft | 294 kts | 236° |
| 2026-05-06 22:15 | 38.49223 | -77.84165 | 22100 ft | 293 kts | 237° |
| 2026-05-06 22:15 | 38.47868 | -77.86122 | 22680 ft | 293 kts | 237° |
| 2026-05-06 22:15 | 38.46525 | -77.88043 | 23181 ft | 295 kts | 237° |
| 2026-05-06 22:15 | 38.45137 | -77.90012 | 23691 ft | 297 kts | 237° |
| 2026-05-06 22:16 | 38.43929 | -77.91867 | 24121 ft | 295 kts | 240° |
| 2026-05-06 22:16 | 38.42722 | -77.94018 | 24632 ft | 294 kts | 243° |
| 2026-05-06 22:16 | 38.41570 | -77.96178 | 24993 ft | 299 kts | 243° |
| 2026-05-06 22:16 | 38.40397 | -77.98369 | 25500 ft | 299 kts | 242° |
| 2026-05-06 22:17 | 38.39212 | -78.00542 | 25964 ft | 301 kts | 242° |
| 2026-05-06 22:17 | 38.38007 | -78.02735 | 26389 ft | 303 kts | 242° |
| 2026-05-06 22:17 | 38.36792 | -78.04933 | 26819 ft | 304 kts | 241° |
| 2026-05-06 22:17 | 38.35565 | -78.07144 | 27196 ft | 307 kts | 241° |
| 2026-05-06 22:18 | 38.34346 | -78.09338 | 27604 ft | 308 kts | 242° |
| 2026-05-06 22:18 | 38.33091 | -78.11599 | 28034 ft | 308 kts | 242° |
| 2026-05-06 22:18 | 38.31862 | -78.13809 | 28405 ft | 310 kts | 241° |
| 2026-05-06 22:18 | 38.30608 | -78.16055 | 28786 ft | 311 kts | 241° |
| 2026-05-06 22:19 | 38.29356 | -78.18299 | 29085 ft | 314 kts | 241° |
| 2026-05-06 22:19 | 38.28090 | -78.20575 | 29433 ft | 316 kts | 241° |
| 2026-05-06 22:19 | 38.26811 | -78.22868 | 29835 ft | 316 kts | 241° |
| 2026-05-06 22:19 | 38.25550 | -78.25124 | 30226 ft | 316 kts | 241° |
| 2026-05-06 22:20 | 38.24266 | -78.27418 | 30462 ft | 320 kts | 242° |
| 2026-05-06 22:20 | 38.22966 | -78.29738 | 30827 ft | 320 kts | 242° |
| 2026-05-06 22:20 | 38.21671 | -78.32046 | 31080 ft | 323 kts | 242° |
| 2026-05-06 22:20 | 38.20375 | -78.34360 | 31502 ft | 322 kts | 242° |
| 2026-05-06 22:21 | 38.19059 | -78.36714 | 31749 ft | 324 kts | 242° |
| 2026-05-06 22:21 | 38.17748 | -78.39053 | 32066 ft | 325 kts | 243° |
| 2026-05-06 22:21 | 38.16412 | -78.41386 | 32264 ft | 329 kts | 242° |
| 2026-05-06 22:21 | 38.15021 | -78.43722 | 32502 ft | 333 kts | 241° |
| 2026-05-06 22:22 | 38.13619 | -78.46046 | 32967 ft | 329 kts | 242° |
| 2026-05-06 22:22 | 38.12209 | -78.48383 | 33235 ft | 330 kts | 241° |
| 2026-05-06 22:22 | 38.10795 | -78.50727 | 33561 ft | 330 kts | 242° |
| 2026-05-06 22:22 | 38.09415 | -78.53025 | 33786 ft | 333 kts | 242° |
| 2026-05-06 22:23 | 38.06584 | -78.57754 | 33877 ft | 337 kts | 242° |
| 2026-05-06 22:23 | 38.03744 | -78.62470 | 33880 ft | 335 kts | 242° |
| 2026-05-06 22:24 | 38.00921 | -78.67170 | 33881 ft | 334 kts | 242° |
| 2026-05-06 22:24 | 37.98105 | -78.71878 | 33883 ft | 337 kts | 242° |
| 2026-05-06 22:25 | 37.95260 | -78.76595 | 33885 ft | 337 kts | 242° |
| 2026-05-06 22:25 | 37.92424 | -78.81280 | 33890 ft | 335 kts | 242° |
| 2026-05-06 22:26 | 37.89586 | -78.85970 | 33892 ft | 336 kts | 242° |
| 2026-05-06 22:26 | 37.86757 | -78.90633 | 33881 ft | 333 kts | 242° |
| 2026-05-06 22:27 | 37.83964 | -78.95256 | 33879 ft | 337 kts | 242° |
| 2026-05-06 22:27 | 37.81112 | -78.99947 | 33877 ft | 334 kts | 242° |
| 2026-05-06 22:28 | 37.78264 | -79.04646 | 33888 ft | 338 kts | 242° |
| 2026-05-06 22:28 | 37.75424 | -79.09317 | 33887 ft | 335 kts | 242° |
| 2026-05-06 22:29 | 37.72586 | -79.13963 | 33898 ft | 335 kts | 242° |
| 2026-05-06 22:29 | 37.69739 | -79.18642 | 33908 ft | 334 kts | 242° |
| 2026-05-06 22:30 | 37.66930 | -79.23302 | 33910 ft | 335 kts | 242° |
| 2026-05-06 22:30 | 37.64149 | -79.28031 | 33912 ft | 335 kts | 243° |
| 2026-05-06 22:31 | 37.61368 | -79.32711 | 33914 ft | 331 kts | 242° |
| 2026-05-06 22:31 | 37.58609 | -79.37390 | 33919 ft | 337 kts | 242° |
| 2026-05-06 22:32 | 37.55826 | -79.42043 | 33920 ft | 329 kts | 243° |
| 2026-05-06 22:32 | 37.53047 | -79.46706 | 33927 ft | 336 kts | 243° |
| 2026-05-06 22:33 | 37.50253 | -79.51384 | 33936 ft | 332 kts | 243° |
| 2026-05-06 22:33 | 37.47503 | -79.55975 | 33935 ft | 328 kts | 244° |
| 2026-05-06 22:34 | 37.44734 | -79.60629 | 33922 ft | 333 kts | 243° |
| 2026-05-06 22:34 | 37.41990 | -79.65196 | 33916 ft | 329 kts | 243° |
| 2026-05-06 22:35 | 37.39226 | -79.69815 | 33914 ft | 335 kts | 243° |
| 2026-05-06 22:35 | 37.36421 | -79.74429 | 33912 ft | 327 kts | 241° |
| 2026-05-06 22:36 | 37.33719 | -79.78939 | 33916 ft | 331 kts | 243° |
| 2026-05-06 22:36 | 37.30919 | -79.83676 | 33922 ft | 332 kts | 243° |
| 2026-05-06 22:37 | 37.28120 | -79.88284 | 33923 ft | 331 kts | 242° |
| 2026-05-06 22:37 | 37.25341 | -79.92845 | 33915 ft | 329 kts | 241° |
| 2026-05-06 22:38 | 37.22551 | -79.97466 | 33921 ft | 332 kts | 241° |
| 2026-05-06 22:38 | 37.19738 | -80.02085 | 33925 ft | 335 kts | 242° |
| 2026-05-06 22:39 | 37.16926 | -80.06709 | 33924 ft | 331 kts | 241° |
| 2026-05-06 22:39 | 37.14130 | -80.11331 | 33932 ft | 335 kts | 242° |
| 2026-05-06 22:40 | 37.11343 | -80.15962 | 33943 ft | 332 kts | 241° |
| 2026-05-06 22:40 | 37.08538 | -80.20542 | 33942 ft | 330 kts | 241° |
| 2026-05-06 22:41 | 37.04333 | -80.27409 | 33953 ft | 333 kts | 242° |
| 2026-05-06 22:42 | 37.01422 | -80.31940 | 33952 ft | 338 kts | 236° |
| 2026-05-06 22:42 | 36.97864 | -80.35952 | 33956 ft | 345 kts | 230° |
| 2026-05-06 22:43 | 36.94100 | -80.39770 | 33950 ft | 353 kts | 231° |
| 2026-05-06 22:43 | 36.90348 | -80.43671 | 33950 ft | 348 kts | 231° |
| 2026-05-06 22:44 | 36.86648 | -80.47563 | 33954 ft | 346 kts | 231° |
| 2026-05-06 22:44 | 36.82995 | -80.51414 | 33958 ft | 346 kts | 231° |
| 2026-05-06 22:45 | 36.79456 | -80.55136 | 33960 ft | 346 kts | 231° |
| 2026-05-06 22:45 | 36.75859 | -80.58884 | 33957 ft | 343 kts | 232° |
| 2026-05-06 22:46 | 36.72277 | -80.62650 | 33964 ft | 351 kts | 231° |
| 2026-05-06 22:46 | 36.68514 | -80.66570 | 33963 ft | 347 kts | 231° |
| 2026-05-06 22:47 | 36.65255 | -80.69984 | 33951 ft | 350 kts | 230° |
| 2026-05-06 22:47 | 36.61602 | -80.73779 | 33949 ft | 347 kts | 230° |
| 2026-05-06 22:48 | 36.57878 | -80.77657 | 33933 ft | 349 kts | 231° |
| 2026-05-06 22:48 | 36.54407 | -80.81274 | 33938 ft | 350 kts | 230° |
| 2026-05-06 22:49 | 36.50709 | -80.85114 | 33939 ft | 348 kts | 230° |
| 2026-05-06 22:49 | 36.47155 | -80.88804 | 33940 ft | 347 kts | 231° |
| 2026-05-06 22:50 | 36.43409 | -80.92699 | 33944 ft | 352 kts | 230° |
| 2026-05-06 22:50 | 36.39046 | -80.97196 | 33950 ft | 348 kts | 231° |
| 2026-05-06 22:51 | 36.35917 | -81.00430 | 33949 ft | 352 kts | 231° |
| 2026-05-06 22:51 | 36.32175 | -81.04307 | 33954 ft | 348 kts | 230° |
| 2026-05-06 22:52 | 36.28468 | -81.08101 | 33955 ft | 345 kts | 230° |
| 2026-05-06 22:52 | 36.24742 | -81.11931 | 33959 ft | 351 kts | 230° |
| 2026-05-06 22:53 | 36.21007 | -81.15766 | 33965 ft | 347 kts | 230° |
| 2026-05-06 22:53 | 36.17275 | -81.19624 | 33962 ft | 350 kts | 231° |
| 2026-05-06 22:54 | 36.13514 | -81.23487 | 33961 ft | 348 kts | 231° |
| 2026-05-06 22:54 | 36.09778 | -81.27322 | 33969 ft | 347 kts | 230° |
| 2026-05-06 22:55 | 36.06074 | -81.31102 | 33963 ft | 349 kts | 231° |
| 2026-05-06 22:55 | 36.02326 | -81.34938 | 33958 ft | 348 kts | 230° |
| 2026-05-06 22:56 | 35.98576 | -81.38726 | 33958 ft | 350 kts | 229° |
| 2026-05-06 22:56 | 35.94339 | -81.41971 | 33959 ft | 369 kts | 219° |
| 2026-05-06 22:57 | 35.89678 | -81.44579 | 33963 ft | 374 kts | 216° |
| 2026-05-06 22:57 | 35.85057 | -81.47082 | 33960 ft | 370 kts | 216° |
| 2026-05-06 22:58 | 35.80318 | -81.49731 | 33964 ft | 375 kts | 217° |
| 2026-05-06 22:58 | 35.75853 | -81.52232 | 33962 ft | 368 kts | 218° |
| 2026-05-06 22:59 | 35.71148 | -81.54866 | 33965 ft | 372 kts | 217° |
| 2026-05-06 22:59 | 35.66956 | -81.57237 | 33964 ft | 381 kts | 217° |
| 2026-05-06 23:00 | 35.62150 | -81.59930 | 33961 ft | 375 kts | 216° |
| 2026-05-06 23:00 | 35.57388 | -81.62595 | 33961 ft | 378 kts | 217° |
| 2026-05-06 23:01 | 35.52703 | -81.65220 | 33961 ft | 376 kts | 217° |
| 2026-05-06 23:01 | 35.47983 | -81.67876 | 33958 ft | 384 kts | 216° |
| 2026-05-06 23:02 | 35.43265 | -81.70516 | 33960 ft | 383 kts | 215° |
| 2026-05-06 23:02 | 35.38474 | -81.73184 | 33961 ft | 379 kts | 216° |
| 2026-05-06 23:03 | 35.33715 | -81.75840 | 33960 ft | 386 kts | 216° |
| 2026-05-06 23:03 | 35.28819 | -81.78558 | 33964 ft | 386 kts | 215° |
| 2026-05-06 23:04 | 35.23884 | -81.81293 | 33955 ft | 388 kts | 214° |
| 2026-05-06 23:04 | 35.18967 | -81.84013 | 33949 ft | 390 kts | 214° |
| 2026-05-06 23:05 | 35.14025 | -81.86784 | 33945 ft | 391 kts | 214° |
| 2026-05-06 23:05 | 35.09081 | -81.89510 | 33945 ft | 386 kts | 213° |
| 2026-05-06 23:06 | 35.04041 | -81.92049 | 33959 ft | 399 kts | 208° |
| 2026-05-06 23:06 | 34.98487 | -81.93309 | 33953 ft | 410 kts | 196° |
| 2026-05-06 23:07 | 34.92675 | -81.93850 | 33962 ft | 423 kts | 193° |
| 2026-05-06 23:07 | 34.86877 | -81.94318 | 33956 ft | 419 kts | 194° |
| 2026-05-06 23:08 | 34.81237 | -81.94784 | 33960 ft | 414 kts | 194° |
| 2026-05-06 23:08 | 34.75816 | -81.95272 | 33956 ft | 417 kts | 195° |
| 2026-05-06 23:09 | 34.69975 | -81.95821 | 33956 ft | 420 kts | 194° |
| 2026-05-06 23:09 | 34.64192 | -81.96356 | 33951 ft | 417 kts | 195° |
| 2026-05-06 23:10 | 34.58705 | -81.96854 | 33954 ft | 418 kts | 195° |
| 2026-05-06 23:10 | 34.52867 | -81.97404 | 33951 ft | 419 kts | 195° |
| 2026-05-06 23:11 | 34.47491 | -81.97907 | 33948 ft | 412 kts | 195° |
| 2026-05-06 23:11 | 34.41765 | -81.98438 | 33950 ft | 415 kts | 195° |
| 2026-05-06 23:12 | 34.35931 | -81.98993 | 33954 ft | 421 kts | 195° |
| 2026-05-06 23:12 | 34.30080 | -81.99532 | 33952 ft | 418 kts | 195° |
| 2026-05-06 23:13 | 34.24212 | -82.00063 | 33938 ft | 418 kts | 195° |
| 2026-05-06 23:13 | 34.18413 | -82.00600 | 33945 ft | 416 kts | 195° |
| 2026-05-06 23:14 | 34.12569 | -82.01135 | 33940 ft | 414 kts | 196° |
| 2026-05-06 23:14 | 34.06808 | -82.01657 | 33942 ft | 416 kts | 196° |
| 2026-05-06 23:15 | 34.00931 | -82.02203 | 33943 ft | 420 kts | 196° |
| 2026-05-06 23:15 | 33.95143 | -82.02730 | 33941 ft | 413 kts | 196° |
| 2026-05-06 23:16 | 33.89429 | -82.03253 | 33943 ft | 417 kts | 196° |
| 2026-05-06 23:16 | 33.83599 | -82.03799 | 33944 ft | 419 kts | 196° |
| 2026-05-06 23:17 | 33.78072 | -82.04303 | 33941 ft | 416 kts | 196° |
| 2026-05-06 23:17 | 33.72707 | -82.04803 | 33952 ft | 424 kts | 195° |
| 2026-05-06 23:18 | 33.66809 | -82.05336 | 33947 ft | 419 kts | 196° |
| 2026-05-06 23:18 | 33.61358 | -82.05828 | 33956 ft | 423 kts | 196° |
| 2026-05-06 23:19 | 33.55445 | -82.06370 | 33960 ft | 423 kts | 195° |
| 2026-05-06 23:19 | 33.49609 | -82.06888 | 33963 ft | 421 kts | 196° |
| 2026-05-06 23:20 | 33.43698 | -82.07430 | 33956 ft | 424 kts | 195° |
| 2026-05-06 23:20 | 33.37820 | -82.07959 | 33965 ft | 422 kts | 195° |
| 2026-05-06 23:21 | 33.31921 | -82.08498 | 33965 ft | 427 kts | 195° |
| 2026-05-06 23:21 | 33.26001 | -82.09026 | 33961 ft | 419 kts | 195° |
| 2026-05-06 23:22 | 33.20153 | -82.09551 | 33969 ft | 425 kts | 195° |
| 2026-05-06 23:22 | 33.14225 | -82.10091 | 33968 ft | 427 kts | 195° |
| 2026-05-06 23:23 | 33.08317 | -82.10618 | 33966 ft | 425 kts | 195° |
| 2026-05-06 23:23 | 33.02368 | -82.11153 | 33972 ft | 428 kts | 195° |
| 2026-05-06 23:24 | 32.96461 | -82.11677 | 33978 ft | 423 kts | 195° |
| 2026-05-06 23:24 | 32.90559 | -82.12205 | 33979 ft | 426 kts | 195° |
| 2026-05-06 23:25 | 32.84845 | -82.12721 | 33974 ft | 426 kts | 195° |
| 2026-05-06 23:25 | 32.78924 | -82.13250 | 33972 ft | 427 kts | 195° |
| 2026-05-06 23:26 | 32.73040 | -82.13773 | 33968 ft | 424 kts | 195° |
| 2026-05-06 23:26 | 32.67083 | -82.14309 | 33974 ft | 429 kts | 195° |
| 2026-05-06 23:27 | 32.61137 | -82.14834 | 33975 ft | 424 kts | 195° |
| 2026-05-06 23:27 | 32.55230 | -82.15356 | 33967 ft | 426 kts | 195° |
| 2026-05-06 23:28 | 32.49281 | -82.15891 | 33977 ft | 429 kts | 195° |
| 2026-05-06 23:28 | 32.43296 | -82.16421 | 33975 ft | 430 kts | 195° |
| 2026-05-06 23:29 | 32.37306 | -82.16954 | 33979 ft | 429 kts | 195° |
| 2026-05-06 23:29 | 32.31348 | -82.17474 | 33979 ft | 429 kts | 195° |
| 2026-05-06 23:30 | 32.25401 | -82.17999 | 33979 ft | 429 kts | 195° |
| 2026-05-06 23:30 | 32.19408 | -82.18526 | 33982 ft | 428 kts | 195° |
| 2026-05-06 23:31 | 32.13452 | -82.19049 | 33983 ft | 429 kts | 195° |
| 2026-05-06 23:31 | 32.07422 | -82.19588 | 33979 ft | 434 kts | 195° |
| 2026-05-06 23:32 | 32.01388 | -82.20116 | 33981 ft | 429 kts | 195° |
| 2026-05-06 23:32 | 31.95450 | -82.20631 | 33979 ft | 429 kts | 195° |
| 2026-05-06 23:33 | 31.89435 | -82.21164 | 33977 ft | 432 kts | 195° |
| 2026-05-06 23:33 | 31.83655 | -82.21672 | 33976 ft | 431 kts | 194° |
| 2026-05-06 23:34 | 31.77567 | -82.22202 | 33978 ft | 430 kts | 194° |
| 2026-05-06 23:34 | 31.71599 | -82.22722 | 33980 ft | 434 kts | 194° |
| 2026-05-06 23:35 | 31.65571 | -82.23245 | 33983 ft | 432 kts | 194° |
| 2026-05-06 23:35 | 31.59564 | -82.23764 | 33979 ft | 431 kts | 194° |
| 2026-05-06 23:36 | 31.53556 | -82.24287 | 33984 ft | 432 kts | 194° |
| 2026-05-06 23:36 | 31.47553 | -82.24805 | 33984 ft | 431 kts | 194° |
| 2026-05-06 23:37 | 31.41552 | -82.25329 | 33986 ft | 433 kts | 194° |
| 2026-05-06 23:37 | 31.35498 | -82.25854 | 33986 ft | 433 kts | 194° |
| 2026-05-06 23:38 | 31.29463 | -82.26378 | 33991 ft | 432 kts | 194° |
| 2026-05-06 23:38 | 31.23433 | -82.26896 | 33993 ft | 434 kts | 194° |
| 2026-05-06 23:39 | 31.17360 | -82.27421 | 33993 ft | 434 kts | 193° |
| 2026-05-06 23:39 | 31.11331 | -82.27937 | 33993 ft | 435 kts | 193° |
| 2026-05-06 23:40 | 31.05283 | -82.28454 | 33985 ft | 434 kts | 193° |
| 2026-05-06 23:40 | 30.99224 | -82.28976 | 33983 ft | 437 kts | 193° |
| 2026-05-06 23:41 | 30.93142 | -82.29498 | 33982 ft | 434 kts | 193° |
| 2026-05-06 23:41 | 30.87104 | -82.30013 | 33986 ft | 434 kts | 193° |
| 2026-05-06 23:42 | 30.81028 | -82.30533 | 33985 ft | 435 kts | 193° |
| 2026-05-06 23:42 | 30.75119 | -82.31036 | 33996 ft | 433 kts | 194° |
| 2026-05-06 23:43 | 30.69123 | -82.31549 | 33996 ft | 434 kts | 193° |
| 2026-05-06 23:43 | 30.66143 | -82.31808 | 33812 ft | 430 kts | 194° |
| 2026-05-06 23:43 | 30.63200 | -82.32110 | 33525 ft | 420 kts | 195° |
| 2026-05-06 23:43 | 30.60299 | -82.32458 | 33237 ft | 410 kts | 196° |
| 2026-05-06 23:44 | 30.57477 | -82.32820 | 32951 ft | 402 kts | 196° |
| 2026-05-06 23:44 | 30.54711 | -82.33181 | 32698 ft | 394 kts | 197° |
| 2026-05-06 23:44 | 30.52013 | -82.33532 | 32452 ft | 386 kts | 197° |
| 2026-05-06 23:44 | 30.49360 | -82.33873 | 32203 ft | 378 kts | 197° |
| 2026-05-06 23:45 | 30.46785 | -82.34202 | 31958 ft | 371 kts | 197° |
| 2026-05-06 23:45 | 30.44210 | -82.34529 | 31707 ft | 364 kts | 197° |
| 2026-05-06 23:45 | 30.41736 | -82.34843 | 31463 ft | 357 kts | 197° |
| 2026-05-06 23:45 | 30.39260 | -82.35156 | 31213 ft | 351 kts | 198° |
| 2026-05-06 23:46 | 30.36847 | -82.35463 | 30968 ft | 349 kts | 198° |
| 2026-05-06 23:46 | 30.34403 | -82.35777 | 30720 ft | 350 kts | 198° |
| 2026-05-06 23:46 | 30.31980 | -82.36088 | 30474 ft | 350 kts | 197° |
| 2026-05-06 23:46 | 30.29571 | -82.36391 | 30228 ft | 348 kts | 197° |
| 2026-05-06 23:47 | 30.27175 | -82.36688 | 29980 ft | 344 kts | 197° |
| 2026-05-06 23:47 | 30.24820 | -82.36977 | 29733 ft | 340 kts | 198° |
| 2026-05-06 23:47 | 30.22444 | -82.37272 | 29482 ft | 337 kts | 198° |
| 2026-05-06 23:47 | 30.20110 | -82.37564 | 29234 ft | 335 kts | 198° |
| 2026-05-06 23:48 | 30.17813 | -82.37837 | 28987 ft | 334 kts | 197° |
| 2026-05-06 23:48 | 30.15483 | -82.37951 | 28738 ft | 338 kts | 191° |
| 2026-05-06 23:48 | 30.13113 | -82.37869 | 28485 ft | 340 kts | 188° |
| 2026-05-06 23:48 | 30.10725 | -82.37705 | 28231 ft | 340 kts | 188° |
| 2026-05-06 23:49 | 30.08378 | -82.37531 | 27981 ft | 337 kts | 188° |
| 2026-05-06 23:49 | 30.06043 | -82.37368 | 27728 ft | 334 kts | 188° |
| 2026-05-06 23:49 | 30.03726 | -82.37219 | 27477 ft | 332 kts | 188° |
| 2026-05-06 23:49 | 30.01423 | -82.37080 | 27229 ft | 330 kts | 188° |
| 2026-05-06 23:50 | 29.99123 | -82.36949 | 26977 ft | 329 kts | 188° |
| 2026-05-06 23:50 | 29.94540 | -82.36692 | 26471 ft | 325 kts | 188° |
| 2026-05-06 23:50 | 29.92307 | -82.36568 | 26223 ft | 322 kts | 188° |
| 2026-05-06 23:51 | 29.90042 | -82.36441 | 25970 ft | 320 kts | 188° |
| 2026-05-06 23:51 | 29.87812 | -82.36317 | 25719 ft | 319 kts | 188° |
| 2026-05-06 23:51 | 29.85583 | -82.36195 | 25471 ft | 321 kts | 188° |
| 2026-05-06 23:51 | 29.83343 | -82.36074 | 25225 ft | 323 kts | 187° |
| 2026-05-06 23:52 | 29.81363 | -82.35967 | 25006 ft | 325 kts | 187° |
| 2026-05-06 23:52 | 29.79082 | -82.35840 | 24754 ft | 324 kts | 187° |
| 2026-05-06 23:52 | 29.76944 | -82.35716 | 24517 ft | 322 kts | 187° |
| 2026-05-06 23:52 | 29.74696 | -82.35589 | 24269 ft | 322 kts | 187° |
| 2026-05-06 23:53 | 29.72459 | -82.35466 | 24023 ft | 324 kts | 187° |
| 2026-05-06 23:53 | 29.70174 | -82.35343 | 23769 ft | 326 kts | 187° |
| 2026-05-06 23:53 | 29.67885 | -82.35219 | 23515 ft | 327 kts | 187° |
| 2026-05-06 23:53 | 29.65617 | -82.35094 | 23262 ft | 327 kts | 187° |
| 2026-05-06 23:54 | 29.63331 | -82.34967 | 23011 ft | 328 kts | 186° |
| 2026-05-06 23:54 | 29.61021 | -82.34839 | 22757 ft | 329 kts | 186° |
| 2026-05-06 23:54 | 29.58732 | -82.34712 | 22506 ft | 329 kts | 186° |
| 2026-05-06 23:54 | 29.56455 | -82.34585 | 22258 ft | 328 kts | 186° |
| 2026-05-06 23:55 | 29.54138 | -82.34455 | 22009 ft | 327 kts | 186° |
| 2026-05-06 23:55 | 29.51888 | -82.34331 | 21786 ft | 327 kts | 186° |
| 2026-05-06 23:55 | 29.49596 | -82.34204 | 21541 ft | 326 kts | 185° |
| 2026-05-06 23:55 | 29.47324 | -82.34080 | 21286 ft | 327 kts | 185° |
| 2026-05-06 23:56 | 29.45057 | -82.33955 | 21039 ft | 328 kts | 185° |
| 2026-05-06 23:56 | 29.42765 | -82.33830 | 20791 ft | 329 kts | 184° |
| 2026-05-06 23:56 | 29.40452 | -82.33701 | 20544 ft | 330 kts | 184° |
| 2026-05-06 23:56 | 29.38148 | -82.33508 | 20297 ft | 331 kts | 181° |
| 2026-05-06 23:57 | 29.35841 | -82.33237 | 20064 ft | 332 kts | 180° |
| 2026-05-06 23:57 | 29.33522 | -82.32937 | 19816 ft | 332 kts | 180° |
| 2026-05-06 23:57 | 29.31226 | -82.32638 | 19589 ft | 332 kts | 179° |
| 2026-05-06 23:57 | 29.28917 | -82.32346 | 19345 ft | 332 kts | 179° |
| 2026-05-06 23:58 | 29.26626 | -82.32063 | 19110 ft | 332 kts | 179° |
| 2026-05-06 23:58 | 29.24319 | -82.31783 | 18838 ft | 331 kts | 179° |
| 2026-05-06 23:58 | 29.22019 | -82.31506 | 18590 ft | 331 kts | 179° |
| 2026-05-06 23:58 | 29.19720 | -82.31231 | 18347 ft | 331 kts | 179° |
| 2026-05-06 23:59 | 29.17402 | -82.30955 | 18084 ft | 331 kts | 178° |
| 2026-05-06 23:59 | 29.15109 | -82.30682 | 17842 ft | 332 kts | 178° |
| 2026-05-06 23:59 | 29.12776 | -82.30405 | 17596 ft | 332 kts | 178° |
| 2026-05-06 23:59 | 29.10502 | -82.30134 | 17378 ft | 332 kts | 178° |
| 2026-05-07 00:00 | 29.08186 | -82.29858 | 17139 ft | 332 kts | 178° |
| 2026-05-07 00:00 | 29.05867 | -82.29582 | 16905 ft | 333 kts | 178° |
| 2026-05-07 00:00 | 29.03549 | -82.29307 | 16661 ft | 333 kts | 178° |
| 2026-05-07 00:00 | 29.01226 | -82.29031 | 16412 ft | 333 kts | 178° |
| 2026-05-07 00:01 | 28.98923 | -82.28758 | 16193 ft | 332 kts | 177° |
| 2026-05-07 00:01 | 28.96627 | -82.28484 | 15946 ft | 332 kts | 177° |
| 2026-05-07 00:01 | 28.94320 | -82.28211 | 15748 ft | 333 kts | 177° |
| 2026-05-07 00:01 | 28.91996 | -82.27936 | 15523 ft | 333 kts | 177° |
| 2026-05-07 00:02 | 28.89691 | -82.27663 | 15271 ft | 332 kts | 177° |
| 2026-05-07 00:02 | 28.87391 | -82.27390 | 15022 ft | 330 kts | 177° |
| 2026-05-07 00:02 | 28.85099 | -82.27118 | 14788 ft | 330 kts | 177° |
| 2026-05-07 00:02 | 28.83131 | -82.26885 | 14588 ft | 329 kts | 176° |
| 2026-05-07 00:03 | 28.80875 | -82.26617 | 14354 ft | 326 kts | 177° |
| 2026-05-07 00:03 | 28.78876 | -82.26381 | 14147 ft | 325 kts | 176° |
| 2026-05-07 00:03 | 28.76613 | -82.26114 | 13908 ft | 324 kts | 176° |
| 2026-05-07 00:03 | 28.74459 | -82.25869 | 13680 ft | 322 kts | 178° |
| 2026-05-07 00:04 | 28.72161 | -82.25733 | 13438 ft | 321 kts | 181° |
| 2026-05-07 00:04 | 28.69912 | -82.25682 | 13198 ft | 320 kts | 182° |
| 2026-05-07 00:04 | 28.67669 | -82.25665 | 13007 ft | 316 kts | 182° |
| 2026-05-07 00:04 | 28.65469 | -82.25651 | 12993 ft | 314 kts | 182° |
| 2026-05-07 00:05 | 28.63278 | -82.25631 | 12990 ft | 318 kts | 182° |
| 2026-05-07 00:05 | 28.61034 | -82.25598 | 12994 ft | 319 kts | 181° |
| 2026-05-07 00:05 | 28.58831 | -82.25556 | 12898 ft | 313 kts | 181° |
| 2026-05-07 00:05 | 28.56661 | -82.25510 | 12586 ft | 309 kts | 181° |
| 2026-05-07 00:06 | 28.54494 | -82.25467 | 12204 ft | 309 kts | 181° |
| 2026-05-07 00:06 | 28.52337 | -82.25426 | 11798 ft | 309 kts | 181° |
| 2026-05-07 00:06 | 28.50194 | -82.25392 | 11390 ft | 308 kts | 181° |
| 2026-05-07 00:06 | 28.48035 | -82.25365 | 11004 ft | 307 kts | 181° |
| 2026-05-07 00:07 | 28.45910 | -82.25340 | 10624 ft | 302 kts | 181° |
| 2026-05-07 00:07 | 28.43814 | -82.25314 | 10241 ft | 296 kts | 181° |
| 2026-05-07 00:07 | 28.41784 | -82.25288 | 9892 ft | 289 kts | 181° |
| 2026-05-07 00:07 | 28.39783 | -82.25262 | 9601 ft | 284 kts | 180° |
| 2026-05-07 00:08 | 28.37812 | -82.25264 | 9249 ft | 282 kts | 184° |
| 2026-05-07 00:08 | 28.35898 | -82.25658 | 8897 ft | 279 kts | 202° |
| 2026-05-07 00:08 | 28.34254 | -82.26832 | 8512 ft | 277 kts | 220° |
| 2026-05-07 00:08 | 28.32832 | -82.28274 | 8133 ft | 276 kts | 223° |
| 2026-05-07 00:09 | 28.31428 | -82.29758 | 7763 ft | 275 kts | 225° |
| 2026-05-07 00:09 | 28.30253 | -82.31456 | 7393 ft | 270 kts | 239° |
| 2026-05-07 00:09 | 28.29612 | -82.33439 | 7003 ft | 265 kts | 259° |
| 2026-05-07 00:09 | 28.29387 | -82.35487 | 6628 ft | 260 kts | 264° |
| 2026-05-07 00:10 | 28.29225 | -82.37502 | 6248 ft | 256 kts | 264° |
| 2026-05-07 00:10 | 28.29040 | -82.39474 | 5993 ft | 245 kts | 262° |
| 2026-05-07 00:10 | 28.28861 | -82.41340 | 5979 ft | 227 kts | 266° |
| 2026-05-07 00:10 | 28.28869 | -82.43072 | 5970 ft | 212 kts | 272° |
| 2026-05-07 00:11 | 28.28952 | -82.44703 | 5958 ft | 208 kts | 272° |
| 2026-05-07 00:11 | 28.29016 | -82.46368 | 5773 ft | 214 kts | 271° |
| 2026-05-07 00:11 | 28.29054 | -82.48055 | 5543 ft | 211 kts | 270° |
| 2026-05-07 00:11 | 28.29078 | -82.49702 | 5306 ft | 207 kts | 270° |
| 2026-05-07 00:12 | 28.29046 | -82.51339 | 5070 ft | 203 kts | 259° |
| 2026-05-07 00:12 | 28.28514 | -82.52782 | 4830 ft | 196 kts | 230° |
| 2026-05-07 00:12 | 28.27469 | -82.53702 | 4586 ft | 188 kts | 200° |
| 2026-05-07 00:12 | 28.26207 | -82.53885 | 4351 ft | 183 kts | 169° |
| 2026-05-07 00:13 | 28.25048 | -82.53334 | 4106 ft | 179 kts | 146° |
| 2026-05-07 00:13 | 28.23979 | -82.52638 | 3881 ft | 177 kts | 154° |
| 2026-05-07 00:13 | 28.22793 | -82.52239 | 3638 ft | 175 kts | 169° |
| 2026-05-07 00:13 | 28.21585 | -82.52114 | 3398 ft | 173 kts | 176° |
| 2026-05-07 00:14 | 28.20390 | -82.52098 | 3169 ft | 170 kts | 179° |
| 2026-05-07 00:14 | 28.19229 | -82.52125 | 2974 ft | 162 kts | 180° |
| 2026-05-07 00:14 | 28.18135 | -82.52159 | 2949 ft | 150 kts | 180° |
| 2026-05-07 00:14 | 28.17071 | -82.52193 | 2986 ft | 156 kts | 179° |
| 2026-05-07 00:15 | 28.15963 | -82.52228 | 2980 ft | 160 kts | 180° |
| 2026-05-07 00:15 | 28.14849 | -82.52268 | 2988 ft | 158 kts | 179° |
| 2026-05-07 00:15 | 28.13730 | -82.52305 | 2889 ft | 159 kts | 180° |
| 2026-05-07 00:15 | 28.12630 | -82.52342 | 2654 ft | 156 kts | 180° |
| 2026-05-07 00:16 | 28.11570 | -82.52379 | 2457 ft | 149 kts | 181° |
| 2026-05-07 00:16 | 28.10534 | -82.52414 | 2270 ft | 150 kts | 182° |
| 2026-05-07 00:16 | 28.09469 | -82.52451 | 2066 ft | 152 kts | 182° |
| 2026-05-07 00:16 | 28.08410 | -82.52487 | 1867 ft | 151 kts | 184° |
| 2026-05-07 00:17 | 28.07362 | -82.52524 | 1668 ft | 151 kts | 184° |
| 2026-05-07 00:17 | 28.06299 | -82.52560 | 1471 ft | 151 kts | 184° |
| 2026-05-07 00:17 | 28.05258 | -82.52595 | 1276 ft | 150 kts | 184° |
| 2026-05-07 00:17 | 28.04209 | -82.52632 | 1093 ft | 148 kts | 184° |
| 2026-05-07 00:18 | 28.03171 | -82.52669 | 891 ft | 148 kts | 184° |
| 2026-05-07 00:18 | 28.02141 | -82.52703 | 699 ft | 146 kts | 185° |
| 2026-05-07 00:18 | 28.01116 | -82.52738 | 513 ft | 146 kts | 185° |
| 2026-05-07 00:18 | 28.00104 | -82.52774 | 325 ft | 146 kts | 185° |
| 2026-05-07 00:19 | 27.99065 | -82.52809 | 139 ft | 145 kts | 184° |
| 2026-05-07 00:19 | 27.98052 | -82.52845 | 27 ft | 142 kts | 185° |
| 2026-05-07 00:19 | 27.97261 | -82.52874 | 23 ft | 82 kts | 180° |
| 2026-05-07 00:19 | 27.96936 | -82.52879 | 22 ft | 18 kts | 191° |
| 2026-05-07 00:20 | 27.96885 | -82.52927 | 20 ft | 0 kts | 249° |
| 2026-05-07 00:20 | 27.96884 | -82.52931 | 20 ft | 0 kts | 253° |
| 2026-05-07 00:21 | 27.96882 | -82.52941 | 21 ft | 6 kts | 265° |
| 2026-05-07 00:21 | 27.96917 | -82.52999 | 25 ft | 11 kts | 341° |
| 2026-05-07 00:22 | 27.96944 | -82.53005 | 25 ft | 0 kts | 357° |
| 2026-05-07 00:22 | 27.96945 | -82.53005 | 25 ft | 1 kts | 357° |
| 2026-05-07 00:22 | 27.96992 | -82.53005 | 25 ft | 13 kts | 1° |
| 2026-05-07 00:23 | 27.97100 | -82.53002 | 25 ft | 14 kts | 1° |
| 2026-05-07 00:23 | 27.97199 | -82.52999 | 26 ft | 14 kts | 2° |
| 2026-05-07 00:23 | 27.97249 | -82.52998 | 25 ft | 1 kts | 1° |
| 2026-05-07 00:23 | 27.97285 | -82.52997 | 25 ft | 6 kts | 1° |
| 2026-05-07 00:24 | 27.97343 | -82.53004 | 25 ft | 8 kts | 332° |
| 2026-05-07 00:24 | 27.97370 | -82.53059 | 25 ft | 7 kts | 279° |
| 2026-05-07 00:24 | 27.97377 | -82.53114 | 25 ft | 5 kts | 282° |
| 2026-05-07 00:24 | 27.97380 | -82.53158 | 25 ft | 6 kts | 277° |
| 2026-05-07 00:25 | 27.97401 | -82.53198 | 26 ft | 5 kts | 331° |
| 2026-05-07 00:25 | 27.97433 | -82.53200 | 26 ft | 4 kts | 7° |
| 2026-05-07 00:25 | 27.97453 | -82.53198 | 25 ft | 0 kts | 8° |
| 2026-05-07 00:25 | 27.97456 | -82.53197 | 25 ft | 0 kts | 8° |